Dedryck Tielemans

Chief Scout - Anderlecht
20 Nov 2027
Saturday
Process

Personality

Adaptability (18) Ambition (13) Controversy (2) Loyalty (12) Pressure (15) Professionalism (2) Sportsmanship (5) Temperament (17)

Profile

Coaching Style Democratic
License Continental C
Determination 5
Man Management 15
Motivating 15
Discipline 8
Job Satisfaction
100%
Fatigue
0%
Role Chief Scout
Wage 42.3K p/w
Contract 14.03.2029

Performance

Behaviour Good
Training Effectiveness
41%
Player Development
65%
Injury Prevention
30%
Tactical Implementation
25%

Recent Events

Assessed a player now
Attended a recruitment meeting now
Attended a recruitment meeting now
Recommended a transfer target now
Recommended a transfer target now
Recommended a transfer target now
Recommended a transfer target now
Assessed a player 7d ago

Currently Monitoring

184
Player Club Status Ability Confidence Watched Last Observed Latest Vote
Matt Freese New York City Active 138 / 142 40% 11 18.11.2027 -
Hugo Souza Corinthians Active 140 / 134 40% 9 18.11.2027 -
Yehvann Diouf OGC Nice Active 151 / 144 40% 2 18.11.2027 -
Kostantis Tzolakis Hull City Active 155 / 155 40% 18 16.11.2027 -
Robin Risser RC Lens Active 156 / 153 40% 3 16.11.2027 -
Gaëtan Poussin Red Star Active 132 / 131 40% 1 16.11.2027 -
Radek Vítek Middlesbrough Active 150 / 146 40% 16 15.11.2027 -
Sam Tickle Maccabi Tel Aviv Active 137 / 141 40% 3 15.11.2027 -
Guillaume Restes Toulouse FC Active 140 / 142 40% 3 15.11.2027 -
Vítězslav Jaroš Liverpool Active 148 / 139 40% 9 14.11.2027 -
Julen Agirrezabala Racing Santander Active 149 / 148 40% 2 14.11.2027 -
Michael Cooper Sheffield United Active 134 / 138 40% 12 12.11.2027 -
Bart Verbruggen Newcastle United Active 161 / 157 40% 6 12.11.2027 -
Jonathan Fischer FC Metz Active 145 / 136 40% 1 11.11.2027 -
Aaron Ramsdale Southampton Active 153 / 149 40% 5 10.11.2027 -
Leo Román Deportivo La Coruña Active 151 / 152 40% 2 10.11.2027 -
Elia Caprile Osasuna Active 148 / 150 40% 1 10.11.2027 -
Diego Enríquez Sporting Cristal Active 140 / 140 40% 8 07.11.2027 -
Mike Penders Chelsea Active 145 / 147 40% 5 07.11.2027 -
Marvin Keller Racing Genk Active 144 / 150 40% 12 05.11.2027 -
Iker Álvarez Huesca Active 141 / 134 40% 2 05.11.2027 -
Carl Rushworth Coventry City Active 150 / 148 40% 18 04.11.2027 -
Matheus Cunha Cruzeiro Active 125 / 144 40% 2 04.11.2027 -
James Trafford Leeds United Active 153 / 149 40% 13 03.11.2027 -
Luiz Júnior Athletic Bilbao Active 158 / 155 40% 5 02.11.2027 -
Obed Nkambadio Monaco Active 142 / 140 40% 1 02.11.2027 -
Lucas Chevalier Paris Saint-Germain Active 164 / 165 40% 2 01.11.2027 -
Anthony Patterson Wrexham Active 143 / 139 40% 12 31.10.2027 -
Pascal Loretz Luzern Active 137 / 135 40% 4 30.10.2027 -
Matvey Safonov Paris Saint-Germain Active 160 / 160 40% 2 30.10.2027 -
Senne Lammens Manchester United Active 155 / 154 40% 11 29.10.2027 -
Bento Lokomotiv Moscow Active 137 / 135 40% 6 29.10.2027 -
Gabriel Brazão Santos Active 130 / 131 40% 5 28.10.2027 -
Mads Hermansen West Ham United Active 150 / 142 40% 20 26.10.2027 -
Zion Suzuki Aston Villa Active 148 / 149 40% 7 26.10.2027 -
Filip Jörgensen Chelsea Active 160 / 154 40% 6 24.10.2027 -
Andriy Lunin Real Madrid Active 160 / 158 40% 2 19.10.2027 -
Giorgi Mamardashvili Sunderland Active 163 / 160 40% 5 18.10.2027 -
Đorđe Petrović Bournemouth Active 159 / 150 40% 16 16.10.2027 -
Mark Travers Everton Active 144 / 146 40% 6 16.10.2027 -
Christos Mandas Lazio Active 150 / 146 40% 2 13.10.2027 -
Arnaud Bodart LOSC Lille Active 130 / 133 40% 4 11.10.2027 -
Berke Özer LOSC Lille Active 141 / 145 40% 1 11.10.2027 -
Lukáš Horníček Burnley Active 155 / 148 40% 2 07.10.2027 -
Arnau Tenas Villarreal Active 145 / 145 40% 1 07.10.2027 -
Carlos Miguel Palmeiras Active 135 / 136 40% 6 05.10.2027 -
Jonmi Magunagoitia Eibar Active 137 / 134 40% 1 02.10.2027 -
Manuel Roffo Hajduk Split Active 141 / 137 40% 2 01.10.2027 -
Adnan Vertonghen KV Oostende Active 141 / 143 40% 11 30.09.2027 -
Jacob Widell Zetterström Derby County Active 137 / 137 40% 5 30.09.2027 -
Illan Meslier Arsenal Active 136 / 135 40% 2 28.09.2027 -
Christian Mertens Mouscron Active 126 / 136 40% 11 27.09.2027 -
Viktor Johansson Stoke City Active 142 / 138 40% 12 25.09.2027 -
Max Weiß Wolverhampton Active 136 / 140 40% 2 25.09.2027 -
Josh Keeley Luton Town Active 130 / 136 40% 7 24.09.2027 -
Vladislav Torop CSKA Moscow Active 139 / 132 40% 2 22.09.2027 -
Elías Rafn Ólafsson FC Midtjylland Active 125 / 122 40% 2 15.09.2027 -
Jamie Cumming Birmingham Active 131 / 136 40% 1 15.09.2027 -
Beau Reus Waasland-Beveren Active 126 / 137 40% 12 13.09.2027 -
Dominik Kotarski FC Copenhagen Active 128 / 127 40% 1 07.09.2027 -
Jakub Stolarczyk Tottenham Active 143 / 141 40% 2 30.08.2027 -
Raúl Rangel Brighton Active 138 / 137 40% 1 29.08.2027 -
Dmytro Riznyk AS Roma Active 146 / 140 40% 3 17.08.2027 -
Ander Astralaga Villarreal Active 130 / 138 40% 1 15.08.2027 -
Arijanet Murić Sassuolo Active 143 / 146 40% 10 14.08.2027 -
Samuel Soares Benfica Active 135 / 142 40% 5 09.08.2027 -
Edoardo Motta Lazio Active 133 / 139 40% 2 09.08.2027 -
Patrick Sequeira Casa Pia Active 136 / 129 40% 1 09.08.2027 -
Lorenzo Palmisani Frosinone Active 138 / 134 40% 6 04.08.2027 -
Grégoire Coudert Burnley Active 136 / 131 40% 9 01.08.2027 -
Anatolii Trubin Tottenham Active 160 / 157 40% 12 28.07.2027 -
Bernardo Fontes Braga Active 131 / 140 40% 4 25.07.2027 -
Cezary Miszta Rio Ave Active 139 / 137 40% 4 21.07.2027 -
Dominik Takáč Slovan Bratislava Active 140 / 137 40% 3 18.07.2027 -
Mateusz Kochalski Qarabag Active 132 / 143 40% 3 16.07.2027 -
Adrian Šemper Al-Fateh Active 126 / 124 40% 5 14.07.2027 -
Daniel Iversen Preston Active 133 / 135 40% 8 09.07.2027 -
Marco Carnesecchi Torino Active 164 / 157 40% 15 08.07.2027 -
Maduka Okoye Udinese Active 141 / 141 40% 4 02.07.2027 -
Lazar Carević Famalicao Active 138 / 139 40% 4 29.06.2027 -
Filip Stanković Venezia Active 131 / 138 40% 2 16.06.2027 -
Oliver Christensen Fiorentina Active 129 / 128 40% 1 07.06.2027 -
Martin Cedidla Torino Negotiating 131 / 132 66% 1 01.06.2027 -
Konstantin Tyukavin Arsenal Negotiating 132 / 133 66% 1 01.06.2027 -
Facundo Torres AIK Active 134 / 134 67% 1 01.06.2027 Approve
Charles De Ketelaere Atalanta Active 160 / 153 40% 2 31.05.2027 -
Dango Ouattara Brentford Active 152 / 142 40% 1 31.05.2027 -
Brennan Johnson Everton Active 149 / 144 40% 1 31.05.2027 -
Nathan Trott Cardiff City Active 131 / 127 40% 6 30.05.2027 -
Ortwin De Wolf KV Mechelen Active 124 / 126 40% 1 29.05.2027 -
Nicolas Schmid Portsmouth Active 128 / 125 40% 3 28.05.2027 -
Nordi Mukiele Sunderland Active 146 / 140 40% 6 27.05.2027 -
Tino Livramento Newcastle United Active 152 / 158 40% 1 27.05.2027 -
Adam Wharton Crystal Palace Active 150 / 151 40% 1 27.05.2027 -
Jacob Greaves Ipswich Town Active 142 / 135 40% 2 26.05.2027 -
Imrân Louza Watford Active 129 / 128 40% 1 26.05.2027 -
Antonio Gomis Vizela Active 122 / 125 40% 1 24.05.2027 -
Max O'Leary West Bromwich Albion Active 130 / 124 40% 10 23.05.2027 -
Alexander Nübel Besiktas Active 148 / 147 40% 3 21.05.2027 -
Ethan Galbraith Swansea City Active 130 / 137 40% 3 20.05.2027 -
Nico González Newcastle United Active 160 / 161 40% 2 20.05.2027 -
Ethan Ampadu Leeds United Active 144 / 144 40% 2 20.05.2027 -
Alex Meret Napoli Active 158 / 154 40% 7 19.05.2027 -
Gianluca Scamacca Atalanta Active 153 / 150 40% 2 17.05.2027 -
Pau Víctor Estrela da Amadora Active 136 / 141 40% 1 17.05.2027 -
Gustavo Hamer Sheffield United Active 136 / 128 40% 2 16.05.2027 -
Nathan Collins Brentford Active 152 / 149 40% 1 16.05.2027 -
Dean Henderson Crystal Palace Active 147 / 152 40% 3 14.05.2027 -
Juan Soriano Académico de Viseu Active 125 / 124 40% 2 12.05.2027 -
Bilal Bayazıt Kayserispor Active 119 / 128 40% 1 09.05.2027 -
Milan van Ewijk Coventry City Active 136 / 135 40% 2 06.05.2027 -
Tyrell Malacia Derby County Active 134 / 140 40% 3 06.05.2027 -
Matty Cash Aston Villa Active 154 / 152 40% 1 06.05.2027 -
Marko Ilić KV Kortrijk Active 133 / 128 40% 11 05.05.2027 -
Gonzalo Fulham Active 142 / 149 40% 1 05.05.2027 -
Óscar Mingueza Crystal Palace Active 154 / 151 40% 2 02.05.2027 -
Adrien Truffert Bournemouth Active 155 / 150 40% 2 02.05.2027 -
Andreas Jungdal Westerlo Active 117 / 118 40% 2 01.05.2027 -
Álex Valle Como Active 139 / 134 40% 1 30.04.2027 -
Amadou Onana Newcastle United Active 156 / 152 40% 2 25.04.2027 -
Nordin Jackers Charleroi Active 119 / 120 40% 1 23.04.2027 -
Manu Koné AS Roma Active 164 / 163 40% 5 18.04.2027 -
Mats Wieffer Brighton Active 154 / 147 40% 1 18.04.2027 -
Oumar Solet Udinese Active 151 / 152 40% 1 12.04.2027 -
Welington Southampton Active 129 / 130 40% 1 12.04.2027 -
Liam Delap Nottingham Forest Active 149 / 142 40% 2 11.04.2027 -
Rodrigo Muniz Fulham Active 143 / 142 40% 1 11.04.2027 -
Zeki Amdouni Burnley Active 137 / 136 40% 1 11.04.2027 -
Eddie Nketiah Crystal Palace Active 138 / 142 40% 1 09.04.2027 -
Ismaïla Sarr Crystal Palace Active 146 / 148 40% 1 09.04.2027 -
Thiago Brentford Active 152 / 144 40% 1 07.04.2027 -
Mohamed-Ali Cho Hull City Active 131 / 140 40% 1 07.04.2027 -
Frédéric Perrot Union Berlin Active 133 / 137 40% 1 05.04.2027 -
Alex Scott Bournemouth Active 151 / 153 40% 2 03.04.2027 -
Noussair Mazraoui Manchester United Active 148 / 153 40% 1 03.04.2027 -
Boubacar Kamara Aston Villa Active 168 / 164 40% 1 03.04.2027 -
Olivier Boscagli Brighton Active 144 / 141 40% 2 31.03.2027 -
Lucas Da Cunha Como Active 146 / 148 40% 1 28.03.2027 -
Dara O'Shea Ipswich Town Active 131 / 131 40% 1 28.03.2027 -
Pablo Felipe West Ham United Active 131 / 141 40% 2 25.03.2027 -
Ricardo Pepi Napoli Active 147 / 143 40% 2 25.03.2027 -
Ian Maatsen Aston Villa Active 148 / 155 40% 1 24.03.2027 -
Pau Torres Aston Villa Active 154 / 151 40% 1 24.03.2027 -
Nicolas Jackson Aston Villa Active 145 / 150 40% 3 22.03.2027 -
Maílson Al-Taawoun Active 135 / 127 40% 1 18.03.2027 -
Uğurcan Çakır Galatasaray Active 144 / 144 40% 3 15.03.2027 -
Ao Tanaka Leeds United Active 141 / 138 40% 1 13.03.2027 -
Yehor Yarmoliuk Brentford Active 152 / 150 40% 1 13.03.2027 -
Anel Ahmedhodžić Burnley Active 131 / 137 40% 2 06.03.2027 -
Tyler Adams Bournemouth Active 150 / 147 40% 1 06.03.2027 -
Sławomir Abramowicz Jagiellonia Active 129 / 122 40% 1 27.02.2027 -
Jan Paul van Hecke Tottenham Active 152 / 151 40% 2 26.02.2027 -
Jerry St. Juste Racing Genk Active 137 / 133 40% 2 23.02.2027 -
Lucas Jetten Cambuur Active 109 / 112 40% 1 21.02.2027 -
Roger François Udinese Active 139 / 145 40% 1 15.02.2027 -
Jean-Philippe Mateta Crystal Palace Active 157 / 146 40% 1 15.02.2027 -
Dominic Solanke Tottenham Active 150 / 148 40% 1 14.02.2027 -
Stefano Gori Union Brescia Active 125 / 126 40% 1 11.02.2027 -
Igor Jesus Nottingham Forest Active 140 / 143 40% 1 10.02.2027 -
Denis Adamov Zenit Active 131 / 130 40% 1 07.02.2027 -
Jens Odgaard Bologna Active 138 / 140 40% 1 26.01.2027 -
Ricardo Velho Aris Thessaloniki Active 126 / 129 40% 1 12.01.2027 -
Luiz Henrique VfB Stuttgart Negotiating 142 / 143 68% 1 01.01.2027 -
Stanislav Agkatsev TSG Hoffenheim Active 132 / 133 66% 1 01.01.2027 Approve
Adrian Dragusin CFR Cluj Active 141 / 142 63% 1 01.01.2027 Approve
Thibaud Verlinden OH Leuven Active 123 / 130 72% 1 01.01.2027 Approve
Noni Madueke Arsenal Active 153 / 156 40% 1 31.12.2026 -
Alexis Saelemaekers AC Milan Active 158 / 155 40% 1 31.12.2026 -
Karim Konaté Red Bull Salzburg Active 138 / 142 40% 4 28.09.2026 -
Ivan Toney Al-Ahli Active 156 / 140 40% 3 28.09.2026 -
Claudiu Nedelcearu Crystal Palace Active 128 / 128 40% 3 27.09.2026 -
Rafael Leão Galatasaray Active 164 / 167 40% 3 27.09.2026 Monitor
Alexey Batrakov Galatasaray Active 145 / 141 40% 1 27.09.2026 -
Mojmír Chytil Hajduk Split Active 127 / 131 40% 2 23.09.2026 -
Steven Bergwijn Al-Ittihad Active 154 / 134 40% 1 16.09.2026 -
Breel Embolo Atlanta United FC Active 131 / 133 40% 1 14.09.2026 -
Martín Ojeda Orlando City Active 136 / 143 40% 1 13.09.2026 -
Matheus Alves Zenit Active 125 / 125 40% 1 10.09.2026 -
Mustafa Hekimoğlu Trabzonspor Active 118 / 123 40% 1 31.08.2026 -
Leon Grgić Sturm Graz Active 119 / 128 40% 1 31.08.2026 -
Koki Machida Kashima Antlers Active 126 / 134 40% 1 24.08.2026 -
Azzedine Ounahi Panathinaikos Active 132 / 138 40% 2 17.08.2026 -
Mauricio Amaro Atlanta United FC Active 118 / 137 40% 1 17.08.2026 -
Jonathan De Irastorza Levante Active 118 / 127 40% 1 17.08.2026 -